Time;durP1;ratioP1;P1;durP2;ratioP2;P2;SDS_P1;SDS_P2;PMS_P1;PMS_P2;Temp;Humidity;BMP_temperature;BMP_pressure;BME280_temperature;BME280_humidity;BME280_pressure;Samples;Min_cycle;Max_cycle;Signal;HPM_P1;HPM_P2
2023/06/08 00:00:41;;;;;;;5.40;3.72;;;;;;;16.86;72.62;101914.22;6186279;28;20261;-79
2023/06/08 00:04:05;;;;;;;9.52;5.25;;;;;;;16.97;72.31;101899.56;6200501;28;20221;-79
2023/06/08 00:07:26;;;;;;;15.85;5.57;;;;;;;17.05;72.01;101910.53;6202168;28;20324;-80
2023/06/08 00:10:48;;;;;;;6.80;4.22;;;;;;;16.90;72.18;101898.47;6198925;28;20241;-79
2023/06/08 00:14:10;;;;;;;9.77;4.63;;;;;;;17.02;71.94;101898.06;6200170;28;20229;-78
2023/06/08 00:17:32;;;;;;;10.38;5.22;;;;;;;16.89;71.73;101900.31;6203674;28;20232;-79
2023/06/08 00:20:53;;;;;;;12.40;5.50;;;;;;;16.74;72.31;101904.56;6202042;28;20233;-79
2023/06/08 00:24:14;;;;;;;8.95;5.32;;;;;;;16.82;72.14;101898.34;6190146;28;20229;-79
2023/06/08 00:27:36;;;;;;;6.75;5.95;;;;;;;16.77;72.27;101887.94;6197922;28;20294;-78
2023/06/08 00:30:57;;;;;;;6.55;4.80;;;;;;;16.67;72.48;101893.41;6193216;28;20229;-79
2023/06/08 00:34:18;;;;;;;7.03;5.13;;;;;;;16.62;72.66;101892.16;6199274;28;20225;-78
2023/06/08 00:37:40;;;;;;;7.47;4.60;;;;;;;16.64;72.74;101896.44;6179011;28;20228;-78
2023/06/08 00:41:01;;;;;;;13.82;6.20;;;;;;;16.53;72.46;101898.47;6199057;28;20229;-78
2023/06/08 00:44:23;;;;;;;12.05;5.38;;;;;;;16.59;72.67;101895.16;6165758;28;20233;-80
2023/06/08 00:47:44;;;;;;;8.37;6.00;;;;;;;16.48;72.89;101896.16;6204477;28;20890;-78
2023/06/08 00:51:05;;;;;;;8.27;5.93;;;;;;;16.43;72.75;101895.78;6193875;28;20293;-80
2023/06/08 00:54:30;;;;;;;8.23;5.60;;;;;;;16.39;73.21;101893.50;6196985;28;20225;-79
2023/06/08 00:57:52;;;;;;;9.07;7.17;;;;;;;16.18;73.21;101901.00;6217109;28;20674;-79
2023/06/08 01:01:17;;;;;;;9.00;6.32;;;;;;;16.17;73.41;101891.97;6206277;28;20261;-79
2023/06/08 01:04:39;;;;;;;6.20;5.60;;;;;;;16.29;73.50;101890.78;6200979;28;20311;-78
2023/06/08 01:08:11;;;;;;;8.38;5.30;;;;;;;16.36;73.37;101886.47;6193273;28;20228;-78
2023/06/08 01:11:42;;;;;;;10.30;5.97;;;;;;;16.08;72.94;101894.75;6191191;28;20237;-79
2023/06/08 01:15:10;;;;;;;8.10;5.43;;;;;;;15.98;73.52;101897.47;6208065;28;20237;-79
2023/06/08 01:18:38;;;;;;;7.47;5.73;;;;;;;15.89;73.79;101891.06;6203231;28;20236;-78
2023/06/08 01:22:11;;;;;;;14.80;7.20;;;;;;;16.03;73.95;101892.44;6194334;28;20224;-79
2023/06/08 01:25:35;;;;;;;12.03;6.67;;;;;;;15.93;73.68;101889.75;6203791;28;20229;-79
2023/06/08 01:28:56;;;;;;;8.27;6.40;;;;;;;15.81;74.36;101884.63;6183616;28;20213;-79
2023/06/08 01:32:18;;;;;;;8.27;5.13;;;;;;;15.77;74.27;101881.31;6198607;28;20240;-77
2023/06/08 01:35:40;;;;;;;7.93;5.90;;;;;;;15.93;74.54;101887.03;6200328;28;20500;-79
2023/06/08 01:39:07;;;;;;;7.50;6.30;;;;;;;15.89;74.47;101880.19;6187337;28;20229;-79
2023/06/08 01:42:30;;;;;;;8.25;5.97;;;;;;;15.77;74.24;101884.03;6195372;28;20742;-80
2023/06/08 01:46:00;;;;;;;8.02;5.70;;;;;;;15.92;74.04;101870.84;6190192;28;20237;-78
2023/06/08 01:49:22;;;;;;;6.37;5.40;;;;;;;15.81;74.36;101873.75;6202566;28;20230;-77
2023/06/08 01:52:43;;;;;;;8.67;7.23;;;;;;;15.67;74.31;101882.34;6203668;28;20228;-78
2023/06/08 01:56:05;;;;;;;9.50;6.83;;;;;;;15.67;74.14;101888.63;6195175;28;20233;-77
2023/06/08 01:59:29;;;;;;;15.17;7.03;;;;;;;15.51;74.58;101884.78;6202266;28;20237;-79
2023/06/08 02:02:50;;;;;;;9.43;6.80;;;;;;;15.56;75.11;101880.63;6186126;28;20336;-79
2023/06/08 02:06:13;;;;;;;11.23;5.90;;;;;;;15.52;74.63;101873.75;6189019;28;20225;-79
2023/06/08 02:09:34;;;;;;;13.05;7.70;;;;;;;15.52;74.75;101881.91;6199383;28;20501;-78
2023/06/08 02:12:55;;;;;;;8.57;5.97;;;;;;;15.33;75.09;101879.19;6202009;28;20232;-78
2023/06/08 02:16:19;;;;;;;7.63;5.83;;;;;;;15.29;75.18;101882.31;6190451;28;20225;-78
2023/06/08 02:19:40;;;;;;;6.13;5.53;;;;;;;15.25;75.03;101875.47;6212458;28;20606;-79
2023/06/08 02:23:01;;;;;;;9.93;6.27;;;;;;;15.18;74.91;101877.88;6197345;28;20277;-79
2023/06/08 02:26:23;;;;;;;6.97;6.27;;;;;;;15.25;75.11;101883.59;6188023;28;20237;-78
2023/06/08 02:29:44;;;;;;;8.43;6.20;;;;;;;15.27;75.26;101890.59;6210007;28;20500;-78
2023/06/08 02:33:07;;;;;;;9.60;5.40;;;;;;;15.29;75.29;101885.03;6202251;28;20232;-78
2023/06/08 02:36:31;;;;;;;7.40;5.80;;;;;;;15.18;75.26;101894.19;6193532;28;20248;-78
2023/06/08 02:39:52;;;;;;;6.33;5.37;;;;;;;15.39;75.23;101880.47;6203142;28;20233;-78
2023/06/08 02:43:14;;;;;;;8.00;5.60;;;;;;;15.35;75.46;101888.06;6209141;28;20228;-79
2023/06/08 02:46:36;;;;;;;6.33;5.73;;;;;;;15.31;75.29;101889.31;6206719;28;20567;-78
2023/06/08 02:49:58;;;;;;;7.17;5.47;;;;;;;15.23;75.37;101893.75;6196962;28;20233;-78
2023/06/08 02:53:19;;;;;;;8.33;7.50;;;;;;;15.23;75.26;101888.31;6210598;28;20236;-79
2023/06/08 02:56:40;;;;;;;9.10;6.43;;;;;;;15.23;75.33;101884.59;6192973;28;20241;-78
2023/06/08 03:00:03;;;;;;;8.93;6.47;;;;;;;15.28;75.32;101875.16;6190873;28;20557;-78
2023/06/08 03:03:34;;;;;;;9.30;7.10;;;;;;;15.10;75.39;101880.44;6184768;28;20377;-77
2023/06/08 03:07:02;;;;;;;8.10;7.33;;;;;;;15.17;75.97;101884.28;6194009;28;20228;-79
2023/06/08 03:10:26;;;;;;;12.50;7.60;;;;;;;15.14;75.69;101881.88;6214110;28;20245;-79
2023/06/08 03:13:48;;;;;;;7.90;6.17;;;;;;;14.66;76.94;101892.63;6197980;28;20426;-79
2023/06/08 03:17:10;;;;;;;13.87;8.03;;;;;;;14.47;77.51;101881.69;6196793;28;20483;-79
2023/06/08 03:20:33;;;;;;;10.43;8.57;;;;;;;14.71;77.97;101889.47;6198746;28;20237;-79
2023/06/08 03:24:01;;;;;;;11.90;7.63;;;;;;;14.60;77.75;101887.75;6204796;28;20229;-77
2023/06/08 03:27:23;;;;;;;9.00;7.40;;;;;;;14.76;78.19;101885.38;6201991;28;20225;-79
2023/06/08 03:30:47;;;;;;;8.40;6.87;;;;;;;14.85;77.99;101884.50;6200974;28;20615;-79
2023/06/08 03:34:10;;;;;;;12.20;8.40;;;;;;;14.70;77.75;101885.06;6190695;28;20225;-78
2023/06/08 03:37:33;;;;;;;11.73;8.83;;;;;;;14.60;78.07;101881.44;6201689;28;20240;-79
2023/06/08 03:40:57;;;;;;;10.53;8.87;;;;;;;14.71;77.84;101874.06;6215046;28;20222;-78
2023/06/08 03:44:19;;;;;;;13.93;8.37;;;;;;;14.85;77.64;101881.78;6177001;28;20229;-78
2023/06/08 03:47:40;;;;;;;10.90;9.23;;;;;;;14.74;77.83;101871.06;6202112;28;20946;-79
2023/06/08 03:51:03;;;;;;;9.53;8.40;;;;;;;14.62;77.89;101885.75;6198882;28;20233;-79
2023/06/08 03:54:25;;;;;;;12.80;10.07;;;;;;;14.66;78.29;101878.19;6197351;28;20552;-78
2023/06/08 03:57:48;;;;;;;14.63;11.47;;;;;;;14.10;78.77;101878.59;6202907;28;20225;-79
2023/06/08 04:01:10;;;;;;;13.13;10.20;;;;;;;14.46;79.43;101881.84;6215834;28;20233;-78
2023/06/08 04:04:31;;;;;;;11.63;10.10;;;;;;;14.69;79.09;101880.59;6201727;28;20236;-79
2023/06/08 04:07:53;;;;;;;13.97;12.57;;;;;;;14.75;78.94;101885.50;6188691;28;20240;-79
2023/06/08 04:11:14;;;;;;;11.43;10.23;;;;;;;14.77;78.49;101881.63;6192333;28;20592;-79
2023/06/08 04:14:36;;;;;;;13.20;11.83;;;;;;;14.76;78.20;101874.50;6202913;28;20687;-79
2023/06/08 04:17:58;;;;;;;14.77;13.47;;;;;;;14.93;78.09;101881.13;6198607;28;20232;-78
2023/06/08 04:21:21;;;;;;;15.63;14.03;;;;;;;14.84;77.75;101879.22;6190233;28;20229;-79
2023/06/08 04:24:43;;;;;;;15.23;13.63;;;;;;;15.10;78.04;101880.44;6199362;28;20268;-78
2023/06/08 04:28:04;;;;;;;16.97;14.27;;;;;;;14.56;77.76;101883.56;6185197;28;20233;-79
2023/06/08 04:31:27;;;;;;;14.37;12.17;;;;;;;14.58;78.48;101880.72;6190778;28;20272;-78
2023/06/08 04:34:48;;;;;;;14.17;10.37;;;;;;;14.36;78.79;101873.63;6215467;28;20236;-79
2023/06/08 04:38:14;;;;;;;13.57;12.17;;;;;;;14.46;79.65;101888.09;6201160;28;22081;-79
2023/06/08 04:41:35;;;;;;;19.70;14.67;;;;;;;14.61;79.59;101885.88;6209557;28;20264;-79
2023/06/08 04:44:59;;;;;;;16.93;12.03;;;;;;;14.32;79.70;101883.91;6198638;28;20651;-78
2023/06/08 04:48:25;;;;;;;14.57;13.03;;;;;;;14.83;79.71;101880.25;6183609;28;20236;-78
2023/06/08 04:51:47;;;;;;;12.83;10.87;;;;;;;14.88;79.56;101883.38;6191710;28;20226;-79
2023/06/08 04:55:12;;;;;;;12.57;10.10;;;;;;;15.31;78.90;101875.72;6206680;28;20233;-78
2023/06/08 04:58:34;;;;;;;12.33;9.63;;;;;;;15.42;77.71;101866.56;6187657;28;20636;-77
2023/06/08 05:01:55;;;;;;;16.10;12.10;;;;;;;15.47;77.50;101858.91;6186432;28;21934;-77
2023/06/08 05:05:17;;;;;;;15.73;10.77;;;;;;;15.54;76.73;101869.03;6195473;28;20220;-78
2023/06/08 05:08:38;;;;;;;12.37;11.17;;;;;;;15.46;76.74;101870.78;6191657;28;20225;-77
2023/06/08 05:11:59;;;;;;;18.10;11.97;;;;;;;15.33;76.45;101867.44;6186238;28;21474;-78
2023/06/08 05:15:21;;;;;;;13.60;12.20;;;;;;;15.61;76.82;101872.03;6199743;28;20250;-77
2023/06/08 05:18:42;;;;;;;17.53;13.13;;;;;;;15.61;76.23;101877.47;6190629;28;20244;-78
2023/06/08 05:22:04;;;;;;;13.53;11.50;;;;;;;15.68;76.58;101868.63;6195318;28;21000;-77
2023/06/08 05:25:26;;;;;;;11.90;10.47;;;;;;;15.78;76.05;101866.75;6199375;28;20509;-77
2023/06/08 05:28:47;;;;;;;12.17;10.40;;;;;;;15.96;75.19;101877.72;6184449;28;20233;-67
2023/06/08 05:32:08;;;;;;;12.67;9.97;;;;;;;15.47;75.71;101870.63;6189721;28;20232;-67
2023/06/08 05:35:29;;;;;;;14.73;11.97;;;;;;;15.36;76.00;101870.72;6194551;28;20236;-68
2023/06/08 05:38:52;;;;;;;13.67;10.53;;;;;;;15.60;75.72;101865.78;6184738;28;20635;-68
2023/06/08 05:42:13;;;;;;;14.80;12.83;;;;;;;15.61;76.01;101867.47;6180913;28;20232;-66
2023/06/08 05:45:34;;;;;;;17.33;11.87;;;;;;;15.92;75.52;101863.56;6196235;28;20224;-67
2023/06/08 05:48:55;;;;;;;11.40;9.40;;;;;;;16.47;75.29;101863.66;6197487;28;20237;-68
2023/06/08 05:52:15;;;;;;;19.50;13.03;;;;;;;17.05;73.03;101861.50;6194944;28;20232;-68
2023/06/08 05:55:39;;;;;;;12.57;9.80;;;;;;;17.15;71.98;101865.00;6185251;28;20236;-68
2023/06/08 05:59:00;;;;;;;18.17;10.57;;;;;;;17.12;71.26;101860.75;6198023;28;20233;-66
2023/06/08 06:02:21;;;;;;;26.73;8.97;;;;;;;17.24;70.27;101854.06;6190402;28;20236;-66
2023/06/08 06:05:41;;;;;;;13.18;11.40;;;;;;;17.23;70.06;101854.22;6191818;28;20241;-68
2023/06/08 06:09:02;;;;;;;13.53;9.57;;;;;;;17.44;69.99;101860.19;6194645;28;20573;-67
2023/06/08 06:12:25;;;;;;;12.00;9.57;;;;;;;17.09;69.14;101866.50;6198769;28;20564;-67
2023/06/08 06:15:46;;;;;;;13.30;7.93;;;;;;;16.97;69.56;101875.03;6199004;28;20220;-68
2023/06/08 06:19:07;;;;;;;10.60;8.50;;;;;;;16.84;70.31;101867.22;6203356;28;20225;-67
2023/06/08 06:22:28;;;;;;;12.77;9.63;;;;;;;16.98;70.15;101871.31;6180386;28;20232;-69
2023/06/08 06:25:50;;;;;;;11.13;9.65;;;;;;;17.02;69.83;101870.81;6192154;28;20803;-69
2023/06/08 06:29:12;;;;;;;15.50;9.25;;;;;;;17.31;70.04;101889.72;6143506;28;20236;-69
2023/06/08 06:32:32;;;;;;;12.85;10.50;;;;;;;17.17;69.35;101882.06;6199171;28;20274;-68
2023/06/08 06:35:54;;;;;;;14.18;11.27;;;;;;;17.58;68.49;101883.38;6195705;28;20225;-67
2023/06/08 06:39:15;;;;;;;14.57;11.07;;;;;;;17.71;68.41;101876.47;6159449;28;20261;-68
2023/06/08 06:42:37;;;;;;;12.40;10.85;;;;;;;17.69;68.46;101880.41;6188613;28;20263;-68
2023/06/08 06:46:19;;;;;;;11.60;10.40;;;;;;;17.49;69.23;101886.03;6173452;28;20237;-68
2023/06/08 06:49:40;;;;;;;14.03;11.33;;;;;;;17.62;68.56;101877.44;6168444;28;20291;-68
2023/06/08 06:53:01;;;;;;;14.88;9.05;;;;;;;17.59;68.93;101880.47;6193551;28;20343;-69
2023/06/08 06:56:22;;;;;;;15.40;10.15;;;;;;;18.27;67.62;101868.69;6175554;28;20233;-68
2023/06/08 06:59:45;;;;;;;16.05;10.10;;;;;;;18.36;66.70;101873.19;6188141;28;20256;-67
2023/06/08 07:03:09;;;;;;;15.85;10.80;;;;;;;18.19;66.36;101868.66;6188150;28;20245;-68
2023/06/08 07:06:31;;;;;;;19.38;11.57;;;;;;;18.29;66.58;101868.56;6179690;28;20260;-67
2023/06/08 07:09:51;;;;;;;10.60;7.95;;;;;;;18.55;65.81;101866.66;6189599;28;20523;-68
2023/06/08 07:13:12;;;;;;;12.88;10.23;;;;;;;18.36;65.32;101872.34;6198696;28;20319;-68
2023/06/08 07:16:33;;;;;;;12.43;9.25;;;;;;;18.27;65.84;101873.31;6193999;28;20628;-70
2023/06/08 07:19:55;;;;;;;12.48;10.20;;;;;;;18.34;65.58;101871.63;6215141;28;20256;-68
2023/06/08 07:23:16;;;;;;;14.10;10.57;;;;;;;18.27;65.84;101867.88;6210521;28;20232;-68
2023/06/08 07:26:37;;;;;;;16.63;11.00;;;;;;;18.62;65.46;101869.59;6204665;28;20233;-68
2023/06/08 07:29:58;;;;;;;11.90;10.70;;;;;;;18.65;65.58;101870.13;6218010;28;20225;-69
2023/06/08 07:33:18;;;;;;;16.05;11.68;;;;;;;18.66;65.43;101876.44;6202520;28;20233;-68
2023/06/08 07:36:40;;;;;;;15.07;10.38;;;;;;;19.26;64.27;101875.28;6197093;28;20291;-68
2023/06/08 07:40:03;;;;;;;15.82;11.98;;;;;;;19.31;63.46;101880.25;6209019;28;20233;-69
2023/06/08 07:43:24;;;;;;;14.60;12.00;;;;;;;19.38;62.96;101873.94;6201197;28;20303;-69
2023/06/08 07:46:45;;;;;;;15.27;11.25;;;;;;;19.41;63.28;101886.44;6190616;28;20372;-68
2023/06/08 07:50:07;;;;;;;11.50;10.02;;;;;;;19.92;62.45;101880.66;6205732;28;20263;-69
2023/06/08 07:53:36;;;;;;;13.00;10.90;;;;;;;20.24;61.52;101877.03;6198388;28;20221;-68
2023/06/08 07:56:57;;;;;;;12.63;10.63;;;;;;;20.44;60.67;101876.47;6191008;28;20564;-68
2023/06/08 08:00:19;;;;;;;16.45;11.45;;;;;;;20.49;61.07;101871.31;6202676;28;20573;-69
2023/06/08 08:03:40;;;;;;;16.08;12.55;;;;;;;20.28;60.54;101868.31;6205144;28;20249;-66
2023/06/08 08:07:02;;;;;;;14.77;11.70;;;;;;;20.73;60.53;101865.72;6199206;28;20626;-67
2023/06/08 08:10:24;;;;;;;16.77;10.98;;;;;;;20.69;59.60;101869.88;6210810;28;20233;-68
2023/06/08 08:13:45;;;;;;;17.67;11.73;;;;;;;20.48;59.77;101874.25;6202398;28;20241;-68
2023/06/08 08:17:07;;;;;;;15.23;10.52;;;;;;;20.08;60.88;101863.34;6199237;28;20228;-67
2023/06/08 08:20:27;;;;;;;13.88;9.10;;;;;;;20.83;60.36;101859.19;6205395;28;20845;-68
2023/06/08 08:23:49;;;;;;;11.70;10.57;;;;;;;21.21;59.58;101858.34;6202382;28;20512;-70
2023/06/08 08:27:11;;;;;;;15.75;10.32;;;;;;;21.16;58.91;101863.50;6190060;28;20225;-68
2023/06/08 08:30:31;;;;;;;12.07;10.77;;;;;;;21.15;59.38;101859.06;6171860;28;20253;-67
2023/06/08 08:33:52;;;;;;;14.48;12.15;;;;;;;21.15;58.62;101853.56;6212376;28;20241;-69
2023/06/08 08:37:14;;;;;;;15.23;11.70;;;;;;;21.19;58.62;101846.69;6194381;28;20229;-70
2023/06/08 08:40:34;;;;;;;11.18;9.77;;;;;;;21.32;58.52;101845.03;6208539;28;20228;-70
2023/06/08 08:44:01;;;;;;;15.98;11.10;;;;;;;21.59;57.88;101845.53;6196821;28;20713;-74
2023/06/08 08:47:23;;;;;;;16.23;11.23;;;;;;;21.74;57.83;101841.78;6186249;28;20244;-73
2023/06/08 08:50:49;;;;;;;12.07;10.65;;;;;;;21.66;57.93;101847.34;6208046;28;20320;-74
2023/06/08 08:54:12;;;;;;;11.43;10.43;;;;;;;21.76;57.38;101844.38;6207864;28;20221;-74
2023/06/08 08:57:33;;;;;;;10.75;9.60;;;;;;;21.64;57.70;101849.44;6209952;28;20237;-73
2023/06/08 09:00:56;;;;;;;11.20;9.68;;;;;;;21.89;57.59;101845.47;6195769;28;20241;-74
2023/06/08 09:04:17;;;;;;;14.88;11.43;;;;;;;22.30;57.05;101845.06;6191851;28;20583;-73
2023/06/08 09:07:38;;;;;;;13.23;9.55;;;;;;;22.61;57.02;101840.25;6198510;28;20241;-73
2023/06/08 09:11:03;;;;;;;16.65;10.98;;;;;;;22.83;55.93;101831.00;6206472;28;20233;-74
2023/06/08 09:14:25;;;;;;;13.30;10.90;;;;;;;23.18;55.32;101835.66;6200978;28;20237;-73
2023/06/08 09:17:48;;;;;;;12.20;11.00;;;;;;;22.93;55.68;101828.78;6202696;28;20232;-73
2023/06/08 09:21:23;;;;;;;12.43;10.35;;;;;;;22.83;54.94;101833.75;6200370;28;20499;-74
2023/06/08 09:24:49;;;;;;;15.13;11.88;;;;;;;22.77;55.98;101827.13;6208232;28;20244;-74
2023/06/08 09:28:18;;;;;;;10.07;8.95;;;;;;;23.16;54.90;101836.88;6207737;28;20258;-73
2023/06/08 09:31:50;;;;;;;14.95;9.95;;;;;;;23.26;56.03;101827.25;6196984;28;20307;-74
2023/06/08 09:35:13;;;;;;;12.55;9.32;;;;;;;23.08;55.32;101823.25;6214045;28;20245;-74
2023/06/08 09:38:35;;;;;;;12.05;10.73;;;;;;;23.09;54.93;101824.97;6214753;28;20241;-74
2023/06/08 09:41:57;;;;;;;11.20;9.57;;;;;;;23.42;54.86;101817.94;6195980;28;20236;-73
2023/06/08 09:45:18;;;;;;;13.30;10.75;;;;;;;23.76;54.42;101820.81;6211402;28;20318;-73
2023/06/08 09:48:39;;;;;;;12.90;9.00;;;;;;;23.76;53.54;101815.31;6212971;28;20229;-73
2023/06/08 09:52:04;;;;;;;13.00;10.15;;;;;;;23.10;53.78;101819.25;6190691;28;20232;-73
2023/06/08 09:55:25;;;;;;;14.02;9.50;;;;;;;23.38;53.89;101811.13;6197058;28;20264;-73
2023/06/08 09:58:50;;;;;;;10.68;9.27;;;;;;;23.71;54.03;101815.03;6207804;28;20228;-74
2023/06/08 10:02:19;;;;;;;14.75;10.02;;;;;;;24.10;53.84;101815.38;6196193;28;20232;-73
2023/06/08 10:05:44;;;;;;;12.45;8.73;;;;;;;24.61;52.14;101815.88;6207681;28;20307;-74
2023/06/08 10:09:09;;;;;;;10.23;8.60;;;;;;;24.85;52.02;101814.50;6205608;28;20229;-73
2023/06/08 10:12:30;;;;;;;15.63;10.15;;;;;;;24.78;51.48;101803.47;6204070;28;20245;-73
2023/06/08 10:15:53;;;;;;;19.77;14.00;;;;;;;25.09;51.64;101806.56;6201360;28;20233;-76
2023/06/08 10:19:14;;;;;;;11.30;9.40;;;;;;;25.35;50.10;101798.31;6178738;28;20221;-74
2023/06/08 10:22:37;;;;;;;9.15;6.05;;;;;;;25.67;51.39;101790.28;6184809;28;20236;-68
2023/06/08 10:26:01;;;;;;;13.27;8.52;;;;;;;25.70;50.08;101792.63;6205420;28;20704;-68
2023/06/08 10:29:27;;;;;;;9.02;7.45;;;;;;;25.65;49.89;101787.75;6189769;28;20233;-68
2023/06/08 10:32:51;;;;;;;16.20;7.25;;;;;;;25.64;49.68;101790.72;6198360;28;20240;-69
2023/06/08 10:36:12;;;;;;;10.45;7.47;;;;;;;25.25;49.33;101781.31;6188276;28;20241;-67
2023/06/08 10:39:47;;;;;;;6.80;6.03;;;;;;;25.31;49.31;101779.59;6198919;28;20241;-68
2023/06/08 10:43:09;;;;;;;8.82;6.57;;;;;;;25.69;49.76;101775.19;6201152;28;20255;-67
2023/06/08 10:46:41;;;;;;;9.20;6.43;;;;;;;25.69;49.38;101777.09;6184747;28;20241;-69
2023/06/08 10:50:04;;;;;;;8.05;6.00;;;;;;;24.99;48.73;101769.38;6194713;28;20337;-67
2023/06/08 10:53:41;;;;;;;8.32;6.45;;;;;;;25.31;49.57;101780.47;6211944;28;20233;-67
2023/06/08 10:57:05;;;;;;;4.93;4.53;;;;;;;25.80;48.47;101773.72;6187953;28;20227;-66
2023/06/08 11:00:45;;;;;;;7.13;5.03;;;;;;;26.30;47.36;101770.25;6208120;28;20229;-66
2023/06/08 11:04:08;;;;;;;6.90;5.43;;;;;;;26.38;47.08;101758.94;6205265;28;20324;-68
2023/06/08 11:07:28;;;;;;;7.18;5.82;;;;;;;26.46;47.04;101752.31;6205216;28;20847;-67
2023/06/08 11:10:54;;;;;;;5.55;5.03;;;;;;;26.53;46.98;101756.75;6207754;28;20221;-66
2023/06/08 11:14:19;;;;;;;6.40;5.57;;;;;;;26.99;46.14;101745.47;6183699;28;20225;-67
2023/06/08 11:17:44;;;;;;;7.18;6.47;;;;;;;27.17;45.64;101739.16;6188830;28;20229;-67
2023/06/08 11:21:06;;;;;;;7.78;4.95;;;;;;;26.76;44.28;101739.66;6199348;28;20232;-67
2023/06/08 11:24:28;;;;;;;5.03;4.53;;;;;;;26.70;45.35;101746.03;6199022;28;20773;-67
2023/06/08 11:27:52;;;;;;;6.47;4.07;;;;;;;27.01;45.54;101742.47;6193223;28;20256;-68
2023/06/08 11:31:13;;;;;;;4.50;3.63;;;;;;;27.26;44.39;101735.91;6196513;28;20224;-67
2023/06/08 11:34:39;;;;;;;6.45;5.07;;;;;;;26.90;44.43;101731.03;6194978;28;20233;-68
2023/06/08 11:38:00;;;;;;;7.15;4.05;;;;;;;27.11;45.59;101732.59;6188097;28;20526;-68
2023/06/08 11:41:22;;;;;;;4.50;4.10;;;;;;;27.10;43.81;101730.91;6190737;28;20234;-68
2023/06/08 11:44:43;;;;;;;8.07;7.20;;;;;;;27.40;44.54;101734.75;6211834;28;20221;-67
2023/06/08 11:48:05;;;;;;;5.75;4.72;;;;;;;27.80;44.17;101723.31;6199686;28;20240;-66
2023/06/08 11:51:27;;;;;;;8.90;4.10;;;;;;;27.88;43.12;101725.78;6186722;28;20229;-66
2023/06/08 11:54:52;;;;;;;8.10;4.43;;;;;;;28.23;43.49;101722.22;6202629;28;20257;-69
2023/06/08 11:58:14;;;;;;;4.45;2.97;;;;;;;28.44;42.86;101724.53;6198391;28;20332;-68
2023/06/08 12:01:35;;;;;;;5.22;2.88;;;;;;;28.60;42.61;101719.44;6175365;28;20245;-65
2023/06/08 12:04:59;;;;;;;5.50;3.45;;;;;;;28.45;42.28;101725.38;6196836;28;20228;-67
2023/06/08 12:08:22;;;;;;;3.53;3.25;;;;;;;28.65;41.74;101708.47;6208932;28;20228;-67
2023/06/08 12:11:43;;;;;;;4.95;3.50;;;;;;;28.78;41.49;101708.28;6189890;28;20760;-67
2023/06/08 12:15:05;;;;;;;4.20;3.42;;;;;;;28.82;41.30;101704.81;6207259;28;20331;-68
2023/06/08 12:18:26;;;;;;;5.78;3.05;;;;;;;28.92;40.62;101698.69;6200708;28;20244;-67
2023/06/08 12:21:47;;;;;;;6.93;3.05;;;;;;;28.21;41.42;101696.63;6192720;28;20561;-67
2023/06/08 12:25:10;;;;;;;3.15;2.63;;;;;;;27.81;41.53;101694.53;6211655;28;20233;-66
2023/06/08 12:28:33;;;;;;;9.00;3.50;;;;;;;28.59;41.00;101699.16;6209796;28;20233;-66
2023/06/08 12:31:53;;;;;;;8.25;3.20;;;;;;;28.49;40.80;101701.63;6200317;28;20232;-67
2023/06/08 12:35:14;;;;;;;7.03;4.10;;;;;;;28.48;40.59;101698.00;6209528;28;20253;-68
2023/06/08 12:38:35;;;;;;;5.53;4.25;;;;;;;28.84;40.09;101696.25;6208695;28;20263;-67
2023/06/08 12:41:58;;;;;;;3.60;3.17;;;;;;;29.42;39.53;101693.63;6193302;28;20240;-67
2023/06/08 12:45:20;;;;;;;4.03;2.67;;;;;;;28.80;38.95;101689.47;6201890;28;20221;-67
2023/06/08 12:48:41;;;;;;;3.58;3.22;;;;;;;27.94;40.61;101692.44;6199782;28;20308;-68
2023/06/08 12:52:02;;;;;;;5.35;3.38;;;;;;;28.38;40.14;101683.84;6190614;28;20527;-68
2023/06/08 12:55:23;;;;;;;3.83;2.55;;;;;;;28.10;40.74;101686.31;6202402;28;20226;-66
2023/06/08 12:58:45;;;;;;;3.45;3.08;;;;;;;29.24;40.05;101677.91;6205856;28;20236;-67
2023/06/08 13:02:06;;;;;;;4.15;3.40;;;;;;;29.36;39.86;101675.97;6188528;28;20236;-67
2023/06/08 13:05:29;;;;;;;5.95;3.83;;;;;;;29.55;39.32;101679.50;6202802;28;20237;-67
2023/06/08 13:08:51;;;;;;;6.25;3.20;;;;;;;29.77;38.76;101677.81;6201294;28;20256;-68
2023/06/08 13:12:12;;;;;;;7.32;6.63;;;;;;;29.89;38.48;101675.88;6184739;28;20530;-66
2023/06/08 13:15:35;;;;;;;5.50;3.53;;;;;;;30.33;37.77;101675.19;6201079;28;20289;-66
2023/06/08 13:18:56;;;;;;;4.80;3.60;;;;;;;31.45;36.62;101668.72;6199975;28;20333;-65
2023/06/08 13:22:19;;;;;;;3.65;3.28;;;;;;;32.99;34.36;101659.03;6186835;28;20310;-67
2023/06/08 13:25:40;;;;;;;5.63;4.05;;;;;;;33.88;33.08;101661.94;6196597;28;20328;-68
2023/06/08 13:29:01;;;;;;;4.43;3.67;;;;;;;34.62;32.21;101665.41;6199751;28;20221;-66
2023/06/08 13:32:23;;;;;;;6.53;3.60;;;;;;;34.69;31.73;101659.53;6176490;28;20230;-68
2023/06/08 13:35:45;;;;;;;4.85;3.33;;;;;;;34.61;31.59;101663.69;6194868;28;20251;-67
2023/06/08 13:39:05;;;;;;;4.30;2.85;;;;;;;34.40;31.26;101651.56;6203995;28;20590;-68
2023/06/08 13:42:26;;;;;;;7.90;6.97;;;;;;;34.47;30.71;101654.13;6176962;28;20229;-67
2023/06/08 13:45:47;;;;;;;5.47;4.55;;;;;;;34.32;31.30;101640.06;6199491;28;20242;-67
2023/06/08 13:49:10;;;;;;;16.60;3.10;;;;;;;34.15;31.65;101647.84;6202356;28;20241;-68
2023/06/08 13:52:32;;;;;;;4.07;3.10;;;;;;;34.06;31.54;101646.69;6195219;28;20224;-68
2023/06/08 13:55:53;;;;;;;6.85;3.95;;;;;;;32.94;32.67;101638.56;6203224;28;20241;-68
2023/06/08 13:59:15;;;;;;;4.18;3.58;;;;;;;32.68;32.20;101631.03;6202874;28;20600;-73
2023/06/08 14:02:36;;;;;;;3.03;2.83;;;;;;;32.30;32.92;101626.38;6187833;28;20225;-74
2023/06/08 14:05:59;;;;;;;5.32;3.80;;;;;;;32.51;33.49;101628.31;6199663;28;20233;-74
2023/06/08 14:09:20;;;;;;;3.80;3.50;;;;;;;31.90;33.84;101623.88;6180269;28;20595;-73
2023/06/08 14:12:40;;;;;;;7.47;4.22;;;;;;;31.35;34.31;101634.22;6206010;28;20240;-73
2023/06/08 14:16:03;;;;;;;7.05;6.22;;;;;;;31.21;34.37;101630.91;6203867;28;20258;-70
2023/06/08 14:19:24;;;;;;;4.75;4.13;;;;;;;31.39;33.77;101625.13;6200019;28;20237;-69
2023/06/08 14:22:46;;;;;;;4.20;2.80;;;;;;;31.71;34.18;101616.09;6194881;28;20232;-69
2023/06/08 14:26:07;;;;;;;4.43;4.03;;;;;;;31.54;34.09;101621.72;6210705;28;20587;-71
2023/06/08 14:29:28;;;;;;;3.33;2.95;;;;;;;30.75;34.81;101604.19;6211180;28;20241;-73
2023/06/08 14:32:50;;;;;;;3.97;3.58;;;;;;;31.48;35.05;101609.63;6204682;28;20496;-69
2023/06/08 14:36:11;;;;;;;10.27;4.22;;;;;;;31.24;34.52;101599.75;6203867;28;20233;-69
2023/06/08 14:39:35;;;;;;;3.83;3.47;;;;;;;31.12;35.43;101606.53;6197740;28;20228;-72
2023/06/08 14:42:56;;;;;;;5.55;3.05;;;;;;;31.50;35.59;101603.81;6214961;28;20236;-70
2023/06/08 14:46:17;;;;;;;2.75;2.38;;;;;;;30.70;34.97;101600.47;6201139;28;20225;-72
2023/06/08 14:49:38;;;;;;;4.75;3.45;;;;;;;30.67;35.15;101593.47;6203125;28;20340;-73
2023/06/08 14:52:59;;;;;;;2.85;2.60;;;;;;;31.35;34.73;101601.63;6209314;28;20236;-71
2023/06/08 14:56:22;;;;;;;3.35;2.58;;;;;;;31.11;35.11;101588.94;6202967;28;22004;-73
2023/06/08 14:59:43;;;;;;;4.43;2.83;;;;;;;31.44;35.27;101588.94;6219276;28;20241;-71
2023/06/08 15:03:04;;;;;;;2.70;2.50;;;;;;;31.38;34.96;101576.00;6208068;28;20236;-71
2023/06/08 15:06:25;;;;;;;4.72;3.28;;;;;;;31.68;34.56;101581.19;6205486;28;20229;-71
2023/06/08 15:09:46;;;;;;;3.45;3.15;;;;;;;31.29;35.07;101585.88;6223847;28;20565;-71
2023/06/08 15:13:08;;;;;;;3.60;3.22;;;;;;;31.63;34.83;101583.06;6217252;28;20232;-71
2023/06/08 15:16:29;;;;;;;6.05;3.22;;;;;;;31.91;35.33;101578.16;6206603;28;20241;-70
2023/06/08 15:19:50;;;;;;;3.13;2.83;;;;;;;31.98;33.86;101581.59;6223707;28;20228;-71
2023/06/08 15:23:13;;;;;;;2.90;2.55;;;;;;;31.77;34.64;101567.66;6214097;28;20609;-73
2023/06/08 15:26:34;;;;;;;2.85;2.58;;;;;;;31.24;35.12;101573.81;6201125;28;20241;-72
2023/06/08 15:29:57;;;;;;;4.22;2.80;;;;;;;31.53;35.70;101576.25;6219062;28;20237;-71
2023/06/08 15:33:18;;;;;;;5.53;4.03;;;;;;;31.62;34.69;101565.50;6209133;28;20586;-71